Aviation Digital Data Service (ADDS)

Output produced by METARs form (0200 UTC 15 September 2014)
found at http://www.aviationweather.gov/adds/metars/
 
KSAV 150153Z 00000KT 10SM FEW025 SCT075 27/23 A3018 RMK AO2 SLP218 FRQ LTG DSNT NW MOV E P0001 T02720233 $